createdAt,value
2022-09-02T00:01:59.640Z,95694.53
2022-09-02T00:04:29.092Z,95688.31
2022-09-02T00:06:58.571Z,95681.59
2022-09-02T00:09:28.615Z,95677.53
2022-09-02T00:11:58.710Z,95676.19
2022-09-02T00:14:33.668Z,95677.50
2022-09-02T00:17:03.657Z,95669.69
2022-09-02T00:19:33.376Z,95669.44
2022-09-02T00:22:04.584Z,95670.50
2022-09-02T00:24:34.439Z,95673.72
2022-09-02T00:27:04.025Z,95672.09
2022-09-02T00:29:35.253Z,95666.44
2022-09-02T00:32:05.902Z,95673.94
2022-09-02T00:34:35.505Z,95657.25
2022-09-02T00:37:05.146Z,95661.53
2022-09-02T00:39:35.034Z,95659.09
2022-09-02T00:42:06.864Z,95656.13
2022-09-02T00:44:37.862Z,95654.50
2022-09-02T00:47:07.493Z,95661.22
2022-09-02T00:49:40.996Z,95655.31
2022-09-02T00:52:15.171Z,95644.25
2022-09-02T00:54:53.978Z,95652.31
2022-09-02T00:57:30.409Z,95641.84
2022-09-02T01:00:11.501Z,95648.03
2022-09-02T01:02:43.209Z,95643.16
2022-09-02T01:05:18.028Z,95643.41
2022-09-02T01:07:48.004Z,95656.03
2022-09-02T01:10:22.432Z,95642.06
2022-09-02T01:12:57.951Z,95645.81
2022-09-02T01:15:30.251Z,95658.16
2022-09-02T01:18:00.373Z,95653.31
2022-09-02T01:20:30.396Z,95652.75
2022-09-02T01:23:02.464Z,95652.75
2022-09-02T01:25:36.156Z,95646.56
2022-09-02T01:28:10.659Z,95648.44
2022-09-02T01:30:46.961Z,95641.47
2022-09-02T01:33:17.915Z,95644.97
2022-09-02T01:35:48.682Z,95639.84
2022-09-02T01:38:20.693Z,95631.53
2022-09-02T01:40:52.623Z,95629.66
2022-09-02T01:43:27.299Z,95630.47
2022-09-02T01:45:59.517Z,95633.44
2022-09-02T01:48:31.909Z,95630.25
2022-09-02T01:51:05.840Z,95637.53
2022-09-02T01:53:36.916Z,95626.28
2022-09-02T01:56:08.519Z,95633.28
2022-09-02T01:58:38.081Z,95630.31
2022-09-02T02:01:09.141Z,95628.97
2022-09-02T02:03:41.536Z,95632.72
2022-09-02T02:06:14.832Z,95627.06
2022-09-02T02:08:46.443Z,95635.63
2022-09-02T02:11:22.043Z,95630.75
2022-09-02T02:13:55.059Z,95626.72
2022-09-02T02:16:25.030Z,95628.28
2022-09-02T02:18:54.654Z,95628.00
2022-09-02T02:21:24.142Z,95626.41
2022-09-02T02:23:55.740Z,95625.31
2022-09-02T02:26:25.282Z,95627.69
2022-09-02T02:28:55.086Z,95631.41
2022-09-02T02:31:25.137Z,95613.38
2022-09-02T02:33:55.050Z,95621.13
2022-09-02T02:36:24.931Z,95618.41
2022-09-02T02:38:56.405Z,95612.50
2022-09-02T02:41:26.771Z,95606.84
2022-09-02T02:43:57.081Z,95615.69
2022-09-02T02:46:27.040Z,95608.41
2022-09-02T02:48:56.613Z,95610.28
2022-09-02T02:51:26.297Z,95612.66
2022-09-02T02:53:59.013Z,95608.06
2022-09-02T02:56:30.427Z,95600.78
2022-09-02T02:59:03.425Z,95603.22
2022-09-02T03:01:35.236Z,95608.00
2022-09-02T03:04:06.976Z,95613.06
2022-09-02T03:06:36.780Z,95615.47
2022-09-02T03:09:07.874Z,95607.94
2022-09-02T03:11:39.619Z,95610.31
2022-09-02T03:14:10.221Z,95601.97
2022-09-02T03:16:41.143Z,95597.94
2022-09-02T03:19:13.993Z,95602.13
2022-09-02T03:21:44.296Z,95603.72
2022-09-02T03:24:15.905Z,95609.56
2022-09-02T03:26:45.574Z,95599.38
2022-09-02T03:29:15.581Z,95598.50
2022-09-02T03:31:46.497Z,95600.06
2022-09-02T03:34:16.472Z,95597.34
2022-09-02T03:36:46.004Z,95602.16
2022-09-02T03:39:18.022Z,95601.84
2022-09-02T03:41:50.261Z,95598.31
2022-09-02T03:44:19.993Z,95596.94
2022-09-02T03:46:49.572Z,95598.25
2022-09-02T03:49:19.263Z,95601.44
2022-09-02T03:51:49.087Z,95597.38
2022-09-02T03:54:20.389Z,95595.19
2022-09-02T03:56:50.152Z,95588.72
2022-09-02T03:59:21.179Z,95582.81
2022-09-02T04:01:51.784Z,95584.91
2022-09-02T04:04:23.076Z,95586.22
2022-09-02T04:06:54.570Z,95592.91
2022-09-02T04:09:25.981Z,95584.31
2022-09-02T04:11:55.822Z,95588.31
2022-09-02T04:14:26.688Z,95584.81
2022-09-02T04:16:57.201Z,95584.00
2022-09-02T04:19:26.981Z,95585.31
2022-09-02T04:21:56.577Z,95586.38
2022-09-02T04:24:28.310Z,95582.88
2022-09-02T04:27:03.336Z,95584.19
2022-09-02T04:29:35.874Z,95581.75
2022-09-02T04:32:06.101Z,95578.53
2022-09-02T04:34:35.736Z,95584.13
2022-09-02T04:37:06.006Z,95583.31
2022-09-02T04:39:37.018Z,95586.81
2022-09-02T04:42:07.288Z,95584.13
2022-09-02T04:44:38.325Z,95583.06
2022-09-02T04:47:08.651Z,95591.09
2022-09-02T04:49:38.377Z,95581.44
2022-09-02T04:52:08.849Z,95584.13
2022-09-02T04:54:42.412Z,95582.00
2022-09-02T04:57:11.936Z,95581.50
2022-09-02T04:59:42.486Z,95579.66
2022-09-02T05:02:15.062Z,95581.59
2022-09-02T05:04:44.687Z,95580.59
2022-09-02T05:07:23.262Z,95588.97
2022-09-02T05:09:58.617Z,95587.22
2022-09-02T05:12:28.979Z,95589.75
2022-09-02T05:15:02.214Z,95589.34
2022-09-02T05:17:35.605Z,95587.59
2022-09-02T05:20:10.011Z,95586.59
2022-09-02T05:22:41.212Z,95584.31
2022-09-02T05:25:13.110Z,95577.94
2022-09-02T05:27:42.684Z,95587.97
2022-09-02T05:30:14.377Z,95587.00
2022-09-02T05:32:43.900Z,95580.06
2022-09-02T05:35:13.536Z,95578.28
2022-09-02T05:37:43.262Z,95580.22
2022-09-02T05:40:14.889Z,95578.38
2022-09-02T05:42:45.573Z,95583.28
2022-09-02T05:45:19.396Z,95582.00
2022-09-02T05:47:50.672Z,95580.44
2022-09-02T05:50:20.670Z,95590.44
2022-09-02T05:52:53.013Z,95585.06
2022-09-02T05:55:25.696Z,95584.31
2022-09-02T05:57:55.325Z,95584.09
2022-09-02T06:00:26.086Z,95587.84
2022-09-02T06:03:01.938Z,95578.47
2022-09-02T06:05:38.353Z,95578.78
2022-09-02T06:08:15.774Z,95584.72
2022-09-02T06:10:46.769Z,95572.34
2022-09-02T06:13:22.836Z,95573.47
2022-09-02T06:15:55.643Z,95579.16
2022-09-02T06:18:28.536Z,95577.78
2022-09-02T06:21:01.705Z,95580.75
2022-09-02T06:23:39.088Z,95572.44
2022-09-02T06:26:14.513Z,95568.09
2022-09-02T06:28:44.472Z,95565.41
2022-09-02T06:31:17.455Z,95562.19
2022-09-02T06:33:49.505Z,95570.22
2022-09-02T06:36:22.353Z,95576.69
2022-09-02T06:39:00.989Z,95575.28
2022-09-02T06:41:35.995Z,95574.47
2022-09-02T06:44:12.586Z,95576.34
2022-09-02T06:46:55.312Z,95568.47
2022-09-02T06:49:28.031Z,95570.06
2022-09-02T06:51:59.731Z,95569.50
2022-09-02T06:54:34.054Z,95573.78
2022-09-02T06:57:14.532Z,95574.53
2022-09-02T06:59:44.740Z,95583.41
2022-09-02T07:05:02.903Z,95579.75
2022-09-02T07:07:32.635Z,95572.38
2022-09-02T07:10:15.060Z,95561.53
2022-09-02T07:12:49.955Z,95568.44
2022-09-02T07:15:20.700Z,95572.69
2022-09-02T07:17:50.658Z,95571.53
2022-09-02T07:20:28.853Z,95570.31
2022-09-02T07:23:04.811Z,95567.53
2022-09-02T07:25:36.609Z,95575.53
2022-09-02T07:28:07.777Z,95565.19
2022-09-02T07:30:42.238Z,95565.59
2022-09-02T07:33:17.694Z,95563.28
2022-09-02T07:35:54.014Z,95558.31
2022-09-02T07:38:24.977Z,95560.56
2022-09-02T07:40:57.011Z,95557.19
2022-09-02T07:43:32.032Z,95561.28
2022-09-02T07:46:03.660Z,95572.50
2022-09-02T07:48:36.862Z,95562.03
2022-09-02T07:51:08.158Z,95554.81
2022-09-02T07:53:41.018Z,95557.06
2022-09-02T07:56:11.005Z,95556.63
2022-09-02T07:58:42.907Z,95558.09
2022-09-02T08:01:29.303Z,95561.13
2022-09-02T08:04:01.551Z,95556.34
2022-09-02T08:07:09.159Z,95552.53
2022-09-02T08:09:40.154Z,95554.56
2022-09-02T08:12:09.953Z,95559.50
2022-09-02T08:14:41.033Z,95560.91
2022-09-02T08:17:11.048Z,95562.09
2022-09-02T08:20:48.390Z,95559.84
2022-09-02T08:23:35.568Z,95556.31
2022-09-02T08:26:08.251Z,95560.13
2022-09-02T08:28:39.441Z,95559.81
2022-09-02T08:31:10.826Z,95561.19
2022-09-02T08:33:40.488Z,95557.66
2022-09-02T08:36:14.552Z,95553.47
2022-09-02T08:38:44.596Z,95554.72
2022-09-02T08:41:22.205Z,95547.66
2022-09-02T08:43:56.351Z,95544.84
2022-09-02T08:46:30.116Z,95548.31
2022-09-02T08:49:03.988Z,95549.31
2022-09-02T08:51:53.156Z,95538.19
2022-09-02T08:54:33.916Z,95551.41
2022-09-02T08:57:03.764Z,95541.00
2022-09-02T08:59:33.618Z,95539.03
2022-09-02T09:02:20.496Z,95531.34
2022-09-02T09:05:18.264Z,95529.81
2022-09-02T09:08:04.839Z,95533.34
2022-09-02T09:10:47.282Z,95532.25
2022-09-02T09:13:52.069Z,95536.59
2022-09-02T09:16:41.570Z,95526.81
2022-09-02T09:19:16.959Z,95530.69
2022-09-02T09:21:46.728Z,95526.16
2022-09-02T09:24:28.302Z,95521.00
2022-09-02T09:26:59.576Z,95519.03
2022-09-02T09:29:33.395Z,95516.94
2022-09-02T09:32:04.140Z,95510.44
2022-09-02T09:35:03.242Z,95518.00
2022-09-02T09:37:37.750Z,95514.22
2022-09-02T09:40:28.827Z,95509.19
2022-09-02T09:43:22.747Z,95504.84
2022-09-02T09:45:54.319Z,95507.63
2022-09-02T09:48:30.812Z,95510.31
2022-09-02T09:51:18.809Z,95509.94
2022-09-02T09:53:48.857Z,95502.13
2022-09-02T09:56:37.544Z,95505.94
2022-09-02T09:59:41.318Z,95503.72
2022-09-02T10:02:24.353Z,95497.56
2022-09-02T10:04:55.642Z,95499.09
2022-09-02T10:07:45.024Z,95510.53
2022-09-02T10:10:22.537Z,95490.19
2022-09-02T10:12:56.902Z,95501.81
2022-09-02T10:15:38.735Z,95506.13
2022-09-02T10:18:21.894Z,95498.75
2022-09-02T10:21:16.291Z,95491.41
2022-09-02T10:23:55.573Z,95494.88
2022-09-02T10:26:39.814Z,95484.25
2022-09-02T10:29:39.528Z,95492.81
2022-09-02T10:32:32.817Z,95487.78
2022-09-02T10:35:12.924Z,95496.47
2022-09-02T10:38:00.421Z,95489.06
2022-09-02T10:40:37.608Z,95489.84
2022-09-02T10:43:09.454Z,95489.41
2022-09-02T10:45:47.848Z,95478.47
2022-09-02T10:48:31.330Z,95481.31
2022-09-02T10:51:06.921Z,95473.56
2022-09-02T10:54:11.349Z,95471.38
2022-09-02T10:56:50.620Z,95470.03
2022-09-02T10:59:24.654Z,95462.78
2022-09-02T11:01:58.431Z,95462.09
2022-09-02T11:04:38.884Z,95464.19
2022-09-02T11:07:11.033Z,95462.59
2022-09-02T11:09:44.925Z,95462.78
2022-09-02T11:12:19.741Z,95463.75
2022-09-02T11:15:00.246Z,95451.06
2022-09-02T11:17:36.314Z,95457.13
2022-09-02T11:20:14.134Z,95451.94
2022-09-02T11:22:54.316Z,95440.97
2022-09-02T11:25:26.675Z,95446.47
2022-09-02T11:28:05.199Z,95437.78
2022-09-02T11:30:44.914Z,95454.19
2022-09-02T11:33:19.918Z,95447.50
2022-09-02T11:35:50.861Z,95444.00
2022-09-02T11:38:36.111Z,95444.63
2022-09-02T11:41:37.084Z,95449.44
2022-09-02T11:44:29.400Z,95447.88
2022-09-02T11:47:15.474Z,95448.16
2022-09-02T11:50:11.129Z,95436.94
2022-09-02T11:52:58.024Z,95438.34
2022-09-02T11:55:33.786Z,95435.56
2022-09-02T11:58:03.775Z,95430.53
2022-09-02T12:00:36.961Z,95422.31
2022-09-02T12:03:40.831Z,95425.56
2022-09-02T12:06:13.720Z,95426.19
2022-09-02T12:09:11.819Z,95425.38
2022-09-02T12:11:49.438Z,95424.75
2022-09-02T12:15:11.589Z,95434.88
2022-09-02T12:18:10.605Z,95435.50
2022-09-02T12:21:19.871Z,95441.31
2022-09-02T12:27:22.586Z,95432.44
2022-09-02T12:29:52.449Z,95429.50
2022-09-02T12:33:09.670Z,95424.31
2022-09-02T12:35:57.557Z,95424.06
2022-09-02T12:38:40.544Z,95425.13
2022-09-02T12:41:30.118Z,95419.91
2022-09-02T12:44:30.592Z,95414.88
2022-09-02T12:47:07.354Z,95416.50
2022-09-02T12:49:50.365Z,95418.41
2022-09-02T12:52:44.305Z,95415.78
2022-09-02T12:55:23.996Z,95417.91
2022-09-02T12:58:07.743Z,95408.84
2022-09-02T13:00:47.925Z,95405.16
2022-09-02T13:03:38.015Z,95408.00
2022-09-02T14:01:37.779Z,95370.31
2022-09-02T14:04:14.291Z,95371.09
2022-09-02T14:06:47.809Z,95363.47
2022-09-02T14:09:22.457Z,95361.06
2022-09-02T14:11:52.955Z,95362.97
2022-09-02T14:14:25.196Z,95356.59
2022-09-02T14:17:21.417Z,95363.31
2022-09-02T14:21:25.306Z,95342.97
2022-09-02T14:37:00.258Z,95326.81
2022-09-02T14:42:18.179Z,95317.25
2022-09-02T14:44:48.320Z,95312.41
2022-09-02T14:47:20.750Z,95319.50
2022-09-02T14:49:55.436Z,95321.94
2022-09-02T14:52:27.835Z,95317.72
2022-09-02T14:56:04.005Z,95311.50
2022-09-02T15:03:47.126Z,95311.97
2022-09-02T15:06:28.513Z,95312.78
2022-09-02T15:08:57.887Z,95310.41
2022-09-02T15:11:27.404Z,95306.84
2022-09-02T15:13:56.805Z,95303.66
2022-09-02T15:16:27.051Z,95304.84
2022-09-02T15:18:57.653Z,95306.47
2022-09-02T15:21:29.466Z,95310.47
2022-09-02T15:23:58.812Z,95308.53
2022-09-02T15:26:29.018Z,95305.38
2022-09-02T15:28:58.979Z,95306.16
2022-09-02T15:31:28.491Z,95305.28
2022-09-02T15:33:58.920Z,95314.69
2022-09-02T15:36:31.336Z,95312.19
2022-09-02T15:39:01.104Z,95313.31
2022-09-02T15:41:31.668Z,95313.66
2022-09-02T15:44:01.150Z,95317.22
2022-09-02T15:46:33.838Z,95311.16
2022-09-02T15:49:06.003Z,95310.63
2022-09-02T16:18:06.077Z,95308.03
2022-09-02T16:20:35.406Z,95307.53
2022-09-02T16:23:04.878Z,95301.13
2022-09-02T16:25:34.355Z,95309.00
2022-09-02T16:28:04.428Z,95300.28
2022-09-02T16:30:34.897Z,95305.22
2022-09-02T16:33:06.214Z,95308.31
2022-09-02T16:35:35.641Z,95308.69
2022-09-02T16:38:05.242Z,95314.50
2022-09-02T16:40:36.037Z,95308.84
2022-09-02T16:43:05.488Z,95304.06
2022-09-02T16:45:35.830Z,95314.28
2022-09-02T16:48:06.564Z,95310.63
2022-09-02T16:50:36.956Z,95297.78
2022-09-02T16:53:06.261Z,95296.47
2022-09-02T16:55:41.412Z,95293.84
2022-09-02T16:58:11.693Z,95293.41
2022-09-02T17:00:46.021Z,95294.91
2022-09-02T17:03:17.044Z,95286.78
2022-09-02T17:05:48.204Z,95288.94
2022-09-02T17:08:18.607Z,95290.16
2022-09-02T17:10:48.196Z,95292.81
2022-09-02T17:13:17.599Z,95288.59
2022-09-02T17:15:47.211Z,95286.63
2022-09-02T17:18:18.081Z,95281.13
2022-09-02T17:20:47.424Z,95292.47
2022-09-02T17:23:16.992Z,95287.06
2022-09-02T17:25:47.591Z,95286.34
2022-09-02T17:28:17.023Z,95282.88
2022-09-02T17:30:46.559Z,95293.03
2022-09-02T17:33:18.539Z,95292.19
2022-09-02T17:35:56.876Z,95296.75
2022-09-02T17:38:27.337Z,95290.53
2022-09-02T17:41:14.512Z,95287.25
2022-09-02T17:43:44.324Z,95288.63
2022-09-02T17:46:14.023Z,95292.50
2022-09-02T17:49:12.828Z,95298.97
2022-09-02T17:51:35.683Z,95293.88
2022-09-02T17:54:32.220Z,95302.22
2022-09-02T17:57:11.111Z,95298.72
2022-09-02T17:59:59.159Z,95295.06
2022-09-02T18:02:57.101Z,95295.75
2022-09-02T18:05:32.703Z,95296.91
2022-09-02T18:08:08.806Z,95303.13
2022-09-02T18:10:41.991Z,95306.47
2022-09-02T18:13:14.699Z,95310.00
2022-09-02T18:16:05.306Z,95324.22
2022-09-02T18:18:36.604Z,95324.31
2022-09-02T18:21:14.912Z,95325.50
2022-09-02T18:24:01.007Z,95324.44
2022-09-02T18:26:47.823Z,95323.69
2022-09-02T18:29:41.186Z,95323.13
2022-09-02T18:32:21.337Z,95327.13
2022-09-02T18:35:02.147Z,95330.81
2022-09-02T18:37:46.391Z,95320.66
2022-09-02T18:40:29.347Z,95329.19
2022-09-02T18:43:12.904Z,95336.88
2022-09-02T18:45:49.362Z,95339.09
2022-09-02T18:48:21.341Z,95338.81
2022-09-02T18:50:56.179Z,95347.66
2022-09-02T18:53:31.428Z,95345.44
2022-09-02T18:56:09.250Z,95351.06
2022-09-02T18:58:43.806Z,95355.03
2022-09-02T19:01:22.378Z,95358.75
2022-09-02T19:03:52.065Z,95362.13
2022-09-02T19:06:23.792Z,95359.00
2022-09-02T19:08:58.513Z,95362.28
2022-09-02T19:11:28.823Z,95365.41
2022-09-02T19:14:09.305Z,95360.94
2022-09-02T19:16:39.982Z,95360.81
2022-09-02T19:19:38.770Z,95369.13
2022-09-02T19:22:11.509Z,95362.84
2022-09-02T19:24:45.599Z,95361.59
2022-09-02T19:27:19.421Z,95363.06
2022-09-02T19:29:53.324Z,95352.91
2022-09-02T19:32:28.056Z,95353.50
2022-09-02T19:34:57.879Z,95363.28
2022-09-02T19:37:27.401Z,95359.88
2022-09-02T19:40:11.762Z,95361.84
2022-09-02T19:42:42.502Z,95351.91
2022-09-02T19:45:39.087Z,95351.66
2022-09-02T19:48:11.357Z,95353.91
2022-09-02T19:50:47.593Z,95360.25
2022-09-02T19:53:25.807Z,95362.50
2022-09-02T19:55:56.601Z,95373.94
2022-09-02T19:58:26.968Z,95376.16
2022-09-02T20:00:57.112Z,95377.06
2022-09-02T20:03:26.824Z,95368.44
2022-09-02T20:05:56.223Z,95368.22
2022-09-02T20:08:31.148Z,95366.66
2022-09-02T20:11:05.012Z,95375.59
2022-09-02T20:13:40.702Z,95362.44
2022-09-02T20:16:20.371Z,95367.63
2022-09-02T20:18:51.125Z,95367.41
2022-09-02T20:21:28.172Z,95353.94
2022-09-02T20:24:00.542Z,95359.13
2022-09-02T20:26:59.129Z,95368.31
2022-09-02T20:29:50.723Z,95356.50
2022-09-02T20:32:48.006Z,95354.16
2022-09-02T20:35:34.100Z,95362.03
2022-09-02T20:38:23.175Z,95364.75
2022-09-02T20:41:00.099Z,95368.06
2022-09-02T20:44:03.506Z,95355.66
2022-09-02T20:46:52.446Z,95355.13
2022-09-02T20:49:43.607Z,95354.13
2022-09-02T20:52:20.323Z,95362.53
2022-09-02T20:54:56.327Z,95355.25
2022-09-02T20:57:36.869Z,95349.09
2022-09-02T21:00:12.184Z,95354.47
2022-09-02T21:02:49.864Z,95360.69
2022-09-02T21:05:24.006Z,95359.63
2022-09-02T21:08:01.429Z,95355.59
2022-09-02T21:10:34.701Z,95350.78
2022-09-02T21:13:11.797Z,95344.34
2022-09-02T21:15:47.636Z,95350.28
2022-09-02T21:18:23.486Z,95348.69
2022-09-02T21:21:00.137Z,95352.75
2022-09-02T21:23:58.801Z,95357.59
2022-09-02T21:26:40.597Z,95357.63
2022-09-02T21:29:16.758Z,95355.50
2022-09-02T21:31:55.161Z,95351.47
2022-09-02T21:34:28.696Z,95354.16
2022-09-02T21:36:59.306Z,95357.41
2022-09-02T21:39:37.834Z,95348.56
2022-09-02T21:42:21.109Z,95354.22
2022-09-02T21:45:07.077Z,95347.25
2022-09-02T21:47:44.370Z,95352.66
2022-09-02T21:50:24.492Z,95347.25
2022-09-02T21:53:12.689Z,95356.16
2022-09-02T21:55:59.314Z,95355.63
2022-09-02T21:58:50.235Z,95349.94
2022-09-02T22:01:35.426Z,95356.91
2022-09-02T22:04:12.467Z,95351.53
2022-09-02T22:06:46.083Z,95364.44
2022-09-02T22:09:20.702Z,95357.69
2022-09-02T22:11:57.331Z,95355.53
2022-09-02T22:14:33.527Z,95358.47
2022-09-02T22:17:06.924Z,95343.91
2022-09-02T22:19:40.441Z,95349.81
2022-09-02T22:22:14.636Z,95340.66
2022-09-02T22:24:49.618Z,95345.22
2022-09-02T22:27:32.855Z,95332.53
2022-09-02T22:30:07.520Z,95334.66
2022-09-02T22:32:42.038Z,95332.50
2022-09-02T22:35:25.234Z,95329.81
2022-09-02T22:38:02.564Z,95337.28
2022-09-02T22:40:37.756Z,95345.34
2022-09-02T22:43:12.551Z,95334.28
2022-09-02T22:46:04.865Z,95339.63
2022-09-02T22:48:55.635Z,95333.97
2022-09-02T22:51:49.423Z,95339.31
2022-09-02T22:54:19.090Z,95339.25
2022-09-02T22:56:58.535Z,95333.56
2022-09-02T22:59:43.337Z,95341.34
2022-09-02T23:02:21.764Z,95345.34
2022-09-02T23:05:37.113Z,95342.38
2022-09-02T23:08:10.749Z,95337.75
2022-09-02T23:10:48.618Z,95337.41
2022-09-02T23:13:32.414Z,95338.66
2022-09-02T23:16:14.277Z,95345.34
2022-09-02T23:18:55.042Z,95336.38
2022-09-02T23:21:30.675Z,95330.94
2022-09-02T23:24:13.401Z,95330.03
2022-09-02T23:26:51.521Z,95331.09
2022-09-02T23:29:24.301Z,95328.31
2022-09-02T23:32:21.730Z,95328.84
2022-09-02T23:35:16.686Z,95333.66
2022-09-02T23:38:02.715Z,95325.28
2022-09-02T23:40:40.144Z,95326.91
2022-09-02T23:43:10.134Z,95338.22
2022-09-02T23:45:39.960Z,95339.03
2022-09-02T23:48:39.610Z,95335.50
2022-09-02T23:51:19.410Z,95335.81
2022-09-02T23:54:08.132Z,95332.28
2022-09-02T23:56:56.008Z,95335.22
2022-09-02T23:59:51.937Z,95333.91
